Aviation Digital Data Service (ADDS)

Output produced by METARs form (1143 UTC 18 June 2019)
found at http://www.aviationweather.gov/metar/data/
 
Forecast for: WMSA (KUALA LUMPUR SA , MY)
Text: TAF WMSA 181100Z 1812/1912 16006KT 9999 FEW017CB
Forecast period: 1200 UTC 18 June 2019 to 1200 UTC 19 June 2019
Forecast type: FROM: standard forecast or significant change
Winds: from the SSE (160 degrees) at 7 MPH (6 knots; 3.1 m/s)
Visibility: 6 or more miles 10+ km)
Ceiling: at least 12,000 feet AGL
Clouds: few clouds at 1700 feet AGL
Weather: no significant weather forecast for this period